createdAt,value
2023-03-05T00:01:27.560Z,4.60
2023-03-05T00:03:57.802Z,4.30
2023-03-05T00:06:27.954Z,4.10
2023-03-05T00:08:58.216Z,4.70
2023-03-05T00:11:29.909Z,4.50
2023-03-05T00:13:58.886Z,4.77
2023-03-05T00:16:27.273Z,4.47
2023-03-05T00:18:57.606Z,3.93
2023-03-05T00:21:27.964Z,3.80
2023-03-05T00:23:56.438Z,4.33
2023-03-05T00:26:26.779Z,4.03
2023-03-05T00:28:56.629Z,4.10
2023-03-05T00:31:30.257Z,4.30
2023-03-05T00:34:02.103Z,4.63
2023-03-05T00:36:30.846Z,4.87
2023-03-05T00:39:00.123Z,4.53
2023-03-05T00:41:28.312Z,5.47
2023-03-05T00:43:56.485Z,4.63
2023-03-05T00:46:27.298Z,4.77
2023-03-05T00:48:55.514Z,4.87
2023-03-05T00:51:25.890Z,5.80
2023-03-05T00:53:54.207Z,4.50
2023-03-05T00:56:22.191Z,4.80
2023-03-05T00:58:50.192Z,4.57
2023-03-05T01:01:18.413Z,4.93
2023-03-05T01:03:46.621Z,4.97
2023-03-05T01:06:17.042Z,5.67
2023-03-05T01:08:46.970Z,5.33
2023-03-05T01:11:15.452Z,5.87
2023-03-05T01:13:43.518Z,5.40
2023-03-05T01:16:11.859Z,5.07
2023-03-05T01:18:40.566Z,5.53
2023-03-05T01:21:08.893Z,5.47
2023-03-05T01:23:37.401Z,4.87
2023-03-05T01:26:08.517Z,4.80
2023-03-05T01:28:38.156Z,4.93
2023-03-05T01:31:09.142Z,5.20
2023-03-05T01:33:37.329Z,5.23
2023-03-05T01:36:10.108Z,5.80
2023-03-05T01:38:38.082Z,5.73
2023-03-05T01:41:07.610Z,5.80
2023-03-05T01:43:35.626Z,5.37
2023-03-05T01:46:38.043Z,5.77
2023-03-05T01:49:14.426Z,5.17
2023-03-05T01:51:49.602Z,5.37
2023-03-05T01:54:20.346Z,5.60
2023-03-05T01:56:51.223Z,5.10
2023-03-05T01:59:20.209Z,5.50
2023-03-05T02:01:52.836Z,5.50
2023-03-05T02:04:22.567Z,6.00
2023-03-05T02:06:50.685Z,6.23
2023-03-05T02:09:18.627Z,6.13
2023-03-05T02:11:46.630Z,6.43
2023-03-05T02:14:15.897Z,6.30
2023-03-05T02:16:44.093Z,6.47
2023-03-05T02:19:13.619Z,6.07
2023-03-05T02:21:44.585Z,6.97
2023-03-05T02:24:13.820Z,6.73
2023-03-05T02:26:43.207Z,6.90
2023-03-05T02:29:14.059Z,5.97
2023-03-05T02:31:43.258Z,6.53
2023-03-05T02:34:11.365Z,6.53
2023-03-05T02:36:39.713Z,6.13
2023-03-05T02:39:10.175Z,6.73
2023-03-05T02:41:38.361Z,6.57
2023-03-05T02:44:06.704Z,6.00
2023-03-05T02:46:34.969Z,6.17
2023-03-05T02:49:03.222Z,6.20
2023-03-05T02:51:31.438Z,5.60
2023-03-05T02:54:00.328Z,5.37
2023-03-05T02:56:31.753Z,5.53
2023-03-05T02:59:01.749Z,5.90
2023-03-05T03:01:30.114Z,5.73
2023-03-05T03:03:59.247Z,5.30
2023-03-05T03:06:27.612Z,5.43
2023-03-05T03:08:55.557Z,6.30
2023-03-05T03:11:23.506Z,6.03
2023-03-05T03:13:52.791Z,6.27
2023-03-05T03:16:20.810Z,6.50
2023-03-05T03:18:48.907Z,6.23
2023-03-05T03:21:21.538Z,6.37
2023-03-05T03:23:49.493Z,6.27
2023-03-05T03:26:17.725Z,6.27
2023-03-05T03:28:46.095Z,6.20
2023-03-05T03:31:15.888Z,6.10
2023-03-05T03:33:44.142Z,6.60
2023-03-05T03:36:13.025Z,5.90
2023-03-05T03:38:41.051Z,6.30
2023-03-05T03:41:09.803Z,7.33
2023-03-05T03:43:38.719Z,6.77
2023-03-05T03:46:07.538Z,6.50
2023-03-05T03:48:37.000Z,6.60
2023-03-05T03:51:08.678Z,6.40
2023-03-05T03:53:36.656Z,5.97
2023-03-05T03:56:05.119Z,6.50
2023-03-05T03:58:33.263Z,6.23
2023-03-05T04:01:01.384Z,5.83
2023-03-05T04:03:29.428Z,5.63
2023-03-05T04:05:58.719Z,5.87
2023-03-05T04:08:26.767Z,6.17
2023-03-05T04:10:54.761Z,5.90
2023-03-05T04:13:22.708Z,6.27
2023-03-05T04:15:50.762Z,5.73
2023-03-05T04:18:18.924Z,5.87
2023-03-05T04:20:46.880Z,5.60
2023-03-05T04:23:16.456Z,6.10
2023-03-05T04:25:44.742Z,5.70
2023-03-05T04:28:12.903Z,5.63
2023-03-05T04:30:40.818Z,5.50
2023-03-05T04:33:08.755Z,5.20
2023-03-05T04:35:37.516Z,6.83
2023-03-05T04:38:05.517Z,5.87
2023-03-05T04:40:35.292Z,5.47
2023-03-05T04:43:03.330Z,5.90
2023-03-05T04:45:31.670Z,5.80
2023-03-05T04:47:59.898Z,5.60
2023-03-05T04:50:27.907Z,5.73
2023-03-05T04:52:55.878Z,5.33
2023-03-05T04:55:23.879Z,5.43
2023-03-05T04:57:53.230Z,5.80
2023-03-05T05:00:21.863Z,5.33
2023-03-05T05:02:51.821Z,6.37
2023-03-05T05:05:22.148Z,6.97
2023-03-05T05:07:50.301Z,6.17
2023-03-05T05:10:18.338Z,6.17
2023-03-05T05:12:46.411Z,5.30
2023-03-05T05:15:16.101Z,5.40
2023-03-05T05:17:44.347Z,6.73
2023-03-05T05:20:14.265Z,6.37
2023-03-05T05:22:42.478Z,6.77
2023-03-05T05:25:11.604Z,6.23
2023-03-05T05:27:40.458Z,6.50
2023-03-05T05:30:09.814Z,6.53
2023-03-05T05:32:39.314Z,5.97
2023-03-05T05:35:09.182Z,6.77
2023-03-05T05:37:37.117Z,7.60
2023-03-05T05:40:06.549Z,7.83
2023-03-05T05:42:35.032Z,6.80
2023-03-05T05:45:03.864Z,6.67
2023-03-05T05:47:31.810Z,6.77
2023-03-05T05:50:01.155Z,5.57
2023-03-05T05:52:29.052Z,6.13
2023-03-05T05:54:57.058Z,6.20
2023-03-05T05:57:25.125Z,5.63
2023-03-05T05:59:53.369Z,5.97
2023-03-05T06:02:21.430Z,5.57
2023-03-05T06:04:49.557Z,5.77
2023-03-05T06:07:18.811Z,5.57
2023-03-05T06:09:46.683Z,6.13
2023-03-05T06:12:14.627Z,5.63
2023-03-05T06:14:42.666Z,5.93
2023-03-05T06:17:12.917Z,5.73
2023-03-05T06:19:42.863Z,5.67
2023-03-05T06:22:10.852Z,5.77
2023-03-05T06:24:40.399Z,5.47
2023-03-05T06:27:08.331Z,5.60
2023-03-05T06:29:36.292Z,5.60
2023-03-05T06:32:05.234Z,4.83
2023-03-05T06:34:33.233Z,5.03
2023-03-05T06:37:01.250Z,5.20
2023-03-05T06:39:30.282Z,4.73
2023-03-05T06:41:59.619Z,5.50
2023-03-05T06:44:27.680Z,4.90
2023-03-05T06:46:55.681Z,4.93
2023-03-05T06:49:23.646Z,4.57
2023-03-05T06:51:51.619Z,5.17
2023-03-05T06:54:19.685Z,4.80
2023-03-05T06:56:48.205Z,4.70
2023-03-05T06:59:18.479Z,4.80
2023-03-05T07:01:46.535Z,4.63
2023-03-05T07:04:15.022Z,4.60
2023-03-05T07:06:43.664Z,5.03
2023-03-05T07:09:15.803Z,5.10
2023-03-05T07:11:43.994Z,4.70
2023-03-05T07:14:12.246Z,4.73
2023-03-05T07:16:41.574Z,4.90
2023-03-05T07:19:10.937Z,5.47
2023-03-05T07:21:40.017Z,5.37
2023-03-05T07:24:09.429Z,5.17
2023-03-05T07:26:37.598Z,4.70
2023-03-05T07:29:05.832Z,4.77
2023-03-05T07:31:33.754Z,5.00
2023-03-05T07:34:04.429Z,4.73
2023-03-05T07:36:34.858Z,4.93
2023-03-05T07:39:04.896Z,4.60
2023-03-05T07:41:33.150Z,4.93
2023-03-05T07:44:01.101Z,5.17
2023-03-05T07:46:32.280Z,5.60
2023-03-05T07:49:02.028Z,5.20
2023-03-05T07:51:30.073Z,5.17
2023-03-05T07:53:59.874Z,5.57
2023-03-05T07:56:31.737Z,5.33
2023-03-05T07:59:00.245Z,5.27
2023-03-05T08:01:28.482Z,4.80
2023-03-05T08:03:56.547Z,5.50
2023-03-05T08:06:25.945Z,5.30
2023-03-05T08:08:53.934Z,5.63
2023-03-05T08:11:22.233Z,5.30
2023-03-05T08:13:50.525Z,4.87
2023-03-05T08:16:20.920Z,4.60
2023-03-05T08:18:49.555Z,5.33
2023-03-05T08:21:18.854Z,5.33
2023-03-05T08:23:48.398Z,4.63
2023-03-05T08:26:18.649Z,4.83
2023-03-05T08:28:46.694Z,5.57
2023-03-05T08:31:16.871Z,4.77
2023-03-05T08:33:45.165Z,5.43
2023-03-05T08:36:13.280Z,4.57
2023-03-05T08:38:41.976Z,5.97
2023-03-05T08:41:11.622Z,5.20
2023-03-05T08:43:39.651Z,5.43
2023-03-05T08:46:07.866Z,6.13
2023-03-05T08:48:35.920Z,5.23
2023-03-05T08:51:08.831Z,6.00
2023-03-05T08:53:37.000Z,5.33
2023-03-05T08:56:05.192Z,5.53
2023-03-05T08:58:34.487Z,6.37
2023-03-05T09:01:02.470Z,8.87
2023-03-05T09:03:30.585Z,8.37
2023-03-05T09:06:01.934Z,6.63
2023-03-05T09:08:30.337Z,6.13
2023-03-05T09:10:58.692Z,7.90
2023-03-05T09:13:26.695Z,8.57
2023-03-05T09:16:01.158Z,7.03
2023-03-05T09:18:29.544Z,7.83
2023-03-05T09:20:57.661Z,7.13
2023-03-05T09:23:26.202Z,7.00
2023-03-05T09:25:54.235Z,7.10
2023-03-05T09:28:22.166Z,10.33
2023-03-05T09:30:50.110Z,7.37
2023-03-05T09:33:19.412Z,6.60
2023-03-05T09:35:48.781Z,7.47
2023-03-05T09:38:16.702Z,7.23
2023-03-05T09:40:50.174Z,7.10
2023-03-05T09:43:30.904Z,7.70
2023-03-05T09:46:19.643Z,6.37
2023-03-05T09:48:53.845Z,8.10
2023-03-05T09:51:25.634Z,8.07
2023-03-05T09:54:03.020Z,7.97
2023-03-05T09:56:36.105Z,6.57
2023-03-05T09:59:15.309Z,7.03
2023-03-05T10:01:45.004Z,6.13
2023-03-05T10:04:17.488Z,7.50
2023-03-05T10:06:51.212Z,7.83
2023-03-05T10:09:32.692Z,6.70
2023-03-05T10:12:04.272Z,5.83
2023-03-05T10:14:35.065Z,4.93
2023-03-05T10:17:23.943Z,5.20
2023-03-05T10:20:23.789Z,4.90
2023-03-05T10:23:06.317Z,4.90
2023-03-05T10:25:51.134Z,4.63
2023-03-05T10:28:26.412Z,5.00
2023-03-05T10:31:12.580Z,5.13
2023-03-05T10:33:49.836Z,5.20
2023-03-05T10:36:35.515Z,5.07
2023-03-05T10:39:40.426Z,6.13
2023-03-05T10:42:16.360Z,5.57
2023-03-05T10:44:50.783Z,5.70
2023-03-05T10:47:26.360Z,5.70
2023-03-05T10:49:55.976Z,5.73
2023-03-05T10:52:30.250Z,5.80
2023-03-05T10:54:58.227Z,6.73
2023-03-05T10:57:28.145Z,6.43
2023-03-05T11:00:02.158Z,6.90
2023-03-05T11:02:30.373Z,8.77
2023-03-05T11:04:58.491Z,7.00
2023-03-05T11:07:39.928Z,6.57
2023-03-05T11:10:21.286Z,7.03
2023-03-05T11:12:49.416Z,6.67
2023-03-05T11:15:30.746Z,6.37
2023-03-05T11:18:21.272Z,6.87
2023-03-05T11:20:49.519Z,6.07
2023-03-05T11:23:20.017Z,6.67
2023-03-05T11:25:58.156Z,6.83
2023-03-05T11:28:33.339Z,6.67
2023-03-05T11:31:09.426Z,5.50
2023-03-05T11:33:38.488Z,5.63
2023-03-05T11:36:24.876Z,5.27
2023-03-05T11:38:57.070Z,4.77
2023-03-05T11:41:30.723Z,4.53
2023-03-05T11:44:00.630Z,4.00
2023-03-05T11:46:29.126Z,4.93
2023-03-05T11:48:58.992Z,5.17
2023-03-05T11:51:31.884Z,4.73
2023-03-05T11:54:09.635Z,5.37
2023-03-05T11:56:39.250Z,4.70
2023-03-05T11:59:15.620Z,4.17
2023-03-05T12:01:46.532Z,5.17
2023-03-05T12:04:15.005Z,4.53
2023-03-05T12:06:47.074Z,5.80
2023-03-05T12:09:24.705Z,6.37
2023-03-05T12:11:57.514Z,9.57
2023-03-05T12:14:29.857Z,6.93
2023-03-05T12:17:05.432Z,6.90
2023-03-05T12:19:41.826Z,6.20
2023-03-05T12:22:18.624Z,6.53
2023-03-05T12:24:48.144Z,6.00
2023-03-05T12:27:18.026Z,5.70
2023-03-05T12:29:49.185Z,6.73
2023-03-05T12:33:00.720Z,7.80
2023-03-05T12:35:35.890Z,7.33
2023-03-05T12:38:25.639Z,7.63
2023-03-05T12:41:37.549Z,7.40
2023-03-05T12:44:26.720Z,8.40
2023-03-05T12:47:17.809Z,7.40
2023-03-05T12:49:47.874Z,7.40
2023-03-05T12:52:27.484Z,7.60
2023-03-05T12:55:21.340Z,7.40
2023-03-05T12:57:56.642Z,7.20
2023-03-05T13:00:28.904Z,6.10
2023-03-05T13:02:59.506Z,6.53
2023-03-05T13:05:30.985Z,6.53
2023-03-05T13:08:14.863Z,6.97
2023-03-05T13:10:44.699Z,6.90
2023-03-05T13:13:16.634Z,6.70
2023-03-05T13:15:47.534Z,6.97
2023-03-05T13:18:21.140Z,6.53
2023-03-05T13:20:52.199Z,7.47
2023-03-05T13:23:24.766Z,6.60
2023-03-05T13:26:02.283Z,6.03
2023-03-05T13:28:32.985Z,6.77
2023-03-05T13:31:03.316Z,6.63
2023-03-05T13:33:33.550Z,5.87
2023-03-05T13:36:02.210Z,5.43
2023-03-05T13:38:34.863Z,7.37
2023-03-05T13:41:09.614Z,6.17
2023-03-05T13:43:45.559Z,5.60
2023-03-05T13:46:13.771Z,7.87
2023-03-05T13:48:41.778Z,6.83
2023-03-05T13:51:11.924Z,6.97
2023-03-05T13:53:40.010Z,6.20
2023-03-05T13:56:16.021Z,6.30
2023-03-05T13:58:53.416Z,6.30
2023-03-05T14:01:31.812Z,5.57
2023-03-05T14:04:05.429Z,4.63
2023-03-05T14:06:42.075Z,5.17
2023-03-05T14:09:21.386Z,12.17
2023-03-05T14:12:01.814Z,8.27
2023-03-05T14:14:32.395Z,5.77
2023-03-05T14:17:25.237Z,5.60
2023-03-05T14:19:53.332Z,12.60
2023-03-05T14:22:32.992Z,5.97
2023-03-05T14:25:00.954Z,6.27
2023-03-05T14:27:32.516Z,4.47
2023-03-05T14:30:03.064Z,5.83
2023-03-05T14:32:33.983Z,7.30
2023-03-05T14:35:05.089Z,5.40
2023-03-05T14:37:36.120Z,6.90
2023-03-05T14:40:08.432Z,6.47
2023-03-05T14:42:39.250Z,6.67
2023-03-05T14:45:14.868Z,6.17
2023-03-05T14:47:42.816Z,6.77
2023-03-05T14:50:15.918Z,5.70
2023-03-05T14:52:44.340Z,6.50
2023-03-05T14:55:16.709Z,6.47
2023-03-05T14:57:45.005Z,6.40
2023-03-05T15:00:18.778Z,5.70
2023-03-05T15:02:46.731Z,6.13
2023-03-05T15:05:14.869Z,6.77
2023-03-05T15:07:44.227Z,6.13
2023-03-05T15:10:14.928Z,5.10
2023-03-05T15:12:42.906Z,5.33
2023-03-05T15:15:14.032Z,5.80
2023-03-05T15:17:47.335Z,5.87
2023-03-05T15:20:17.792Z,7.13
2023-03-05T15:22:45.764Z,8.20
2023-03-05T15:25:14.260Z,6.97
2023-03-05T15:27:42.536Z,7.57
2023-03-05T15:30:21.188Z,8.67
2023-03-05T15:32:50.764Z,9.03
2023-03-05T15:35:19.132Z,7.50
2023-03-05T15:37:47.178Z,15.30
2023-03-05T15:40:15.481Z,12.77
2023-03-05T15:42:43.496Z,10.53
2023-03-05T15:45:11.831Z,8.47
2023-03-05T15:47:39.778Z,8.17
2023-03-05T15:50:11.018Z,8.67
2023-03-05T15:52:39.091Z,10.17
2023-03-05T15:55:08.095Z,8.07
2023-03-05T15:57:38.399Z,8.13
2023-03-05T16:00:08.187Z,10.53
2023-03-05T16:02:37.987Z,9.20
2023-03-05T16:05:07.066Z,10.37
2023-03-05T16:07:39.012Z,10.37
2023-03-05T16:10:08.372Z,8.90
2023-03-05T16:12:40.807Z,9.53
2023-03-05T16:15:10.676Z,10.13
2023-03-05T16:17:42.147Z,7.63
2023-03-05T16:20:12.508Z,8.60
2023-03-05T16:22:41.790Z,10.50
2023-03-05T16:25:10.482Z,10.30
2023-03-05T16:27:38.542Z,10.90
2023-03-05T16:30:08.020Z,12.73
2023-03-05T16:32:37.561Z,12.80
2023-03-05T16:35:06.249Z,13.97
2023-03-05T16:37:34.204Z,10.77
2023-03-05T16:40:03.731Z,12.03
2023-03-05T16:42:39.945Z,12.43
2023-03-05T16:45:09.558Z,13.43
2023-03-05T16:47:38.390Z,12.63
2023-03-05T16:50:07.514Z,12.63
2023-03-05T16:52:35.497Z,11.50
2023-03-05T16:55:05.223Z,9.57
2023-03-05T16:57:33.255Z,9.63
2023-03-05T17:00:04.057Z,9.70
2023-03-05T17:02:32.055Z,8.90
2023-03-05T17:05:00.063Z,8.43
2023-03-05T17:07:28.415Z,10.00
2023-03-05T17:09:56.418Z,11.40
2023-03-05T17:12:25.711Z,10.70
2023-03-05T17:14:53.710Z,12.60
2023-03-05T17:17:21.644Z,13.10
2023-03-05T17:19:49.711Z,12.00
2023-03-05T17:22:17.764Z,10.57
2023-03-05T17:24:47.242Z,10.27
2023-03-05T17:27:18.637Z,10.07
2023-03-05T17:29:47.989Z,10.37
2023-03-05T17:32:16.076Z,9.83
2023-03-05T17:34:44.491Z,10.27
2023-03-05T17:37:12.654Z,11.37
2023-03-05T17:39:41.144Z,12.73
2023-03-05T17:42:09.140Z,14.47
2023-03-05T17:44:37.198Z,13.13
2023-03-05T17:47:06.896Z,11.07
2023-03-05T17:49:35.200Z,11.37
2023-03-05T17:52:03.306Z,11.13
2023-03-05T17:54:31.434Z,11.30
2023-03-05T17:57:00.647Z,11.70
2023-03-05T17:59:29.368Z,11.17
2023-03-05T18:01:57.478Z,10.43
2023-03-05T18:04:27.186Z,10.70
2023-03-05T18:06:55.170Z,11.17
2023-03-05T18:09:23.091Z,10.97
2023-03-05T18:11:51.095Z,10.87
2023-03-05T18:14:19.094Z,11.67
2023-03-05T18:16:47.419Z,10.33
2023-03-05T18:19:15.660Z,10.87
2023-03-05T18:21:44.945Z,10.20
2023-03-05T18:24:13.321Z,10.43
2023-03-05T18:26:41.246Z,10.47
2023-03-05T18:29:09.250Z,9.50
2023-03-05T18:31:37.185Z,10.80
2023-03-05T18:34:05.500Z,9.90
2023-03-05T18:36:33.955Z,11.83
2023-03-05T18:39:04.098Z,12.00
2023-03-05T18:41:32.262Z,14.57
2023-03-05T18:44:00.240Z,13.33
2023-03-05T18:46:28.371Z,14.73
2023-03-05T18:48:56.465Z,14.63
2023-03-05T18:51:25.773Z,15.17
2023-03-05T18:53:55.092Z,17.00
2023-03-05T18:56:25.170Z,17.83
2023-03-05T18:58:53.095Z,15.73
2023-03-05T19:01:21.689Z,17.87
2023-03-05T19:03:50.035Z,17.57
2023-03-05T19:06:18.398Z,15.20
2023-03-05T19:08:46.913Z,14.47
2023-03-05T19:11:17.447Z,14.50
2023-03-05T19:13:49.053Z,15.90
2023-03-05T19:16:18.900Z,15.57
2023-03-05T19:19:22.526Z,14.90
2023-03-05T19:21:53.506Z,13.90
2023-03-05T19:24:22.297Z,14.63
2023-03-05T19:26:55.077Z,15.13
2023-03-05T19:29:25.183Z,14.77
2023-03-05T19:31:53.488Z,18.77
2023-03-05T19:34:21.576Z,21.57
2023-03-05T19:36:49.697Z,20.13
2023-03-05T19:39:17.766Z,17.70
2023-03-05T19:41:45.811Z,16.13
2023-03-05T19:44:14.496Z,15.80
2023-03-05T19:46:43.837Z,14.90
2023-03-05T19:49:12.237Z,14.43
2023-03-05T19:51:42.506Z,15.60
2023-03-05T19:54:10.977Z,16.90
2023-03-05T19:56:39.917Z,15.57
2023-03-05T19:59:08.442Z,14.50
2023-03-05T20:01:37.209Z,15.23
2023-03-05T20:04:06.939Z,15.60
2023-03-05T20:06:35.167Z,16.67
2023-03-05T20:09:03.211Z,16.07
2023-03-05T20:11:31.295Z,18.10
2023-03-05T20:13:59.934Z,19.37
2023-03-05T20:16:30.613Z,19.60
2023-03-05T20:18:59.912Z,18.97
2023-03-05T20:21:31.968Z,17.70
2023-03-05T20:24:02.702Z,18.03
2023-03-05T20:26:31.337Z,17.53
2023-03-05T20:28:59.379Z,17.00
2023-03-05T20:31:28.412Z,17.80
2023-03-05T20:33:57.061Z,16.90
2023-03-05T20:36:26.780Z,17.77
2023-03-05T20:38:56.090Z,17.77
2023-03-05T20:41:24.541Z,17.97
2023-03-05T20:43:53.389Z,19.13
2023-03-05T20:46:23.880Z,19.40
2023-03-05T20:48:53.930Z,19.97
2023-03-05T20:51:24.748Z,21.20
2023-03-05T20:53:56.665Z,19.17
2023-03-05T20:56:28.137Z,18.07
2023-03-05T20:58:58.202Z,17.87
2023-03-05T21:01:26.904Z,19.90
2023-03-05T21:03:57.038Z,18.97
2023-03-05T21:06:25.882Z,18.77
2023-03-05T21:08:54.405Z,19.23
2023-03-05T21:11:23.038Z,18.43
2023-03-05T21:13:52.489Z,20.97
2023-03-05T21:16:22.316Z,19.37
2023-03-05T21:18:51.945Z,20.10
2023-03-05T21:21:20.651Z,19.30
2023-03-05T21:23:48.733Z,20.03
2023-03-05T21:26:16.895Z,19.73
2023-03-05T21:28:44.919Z,20.27
2023-03-05T21:31:17.536Z,20.60
2023-03-05T21:33:45.650Z,20.97
2023-03-05T21:36:18.406Z,20.60
2023-03-05T21:38:46.835Z,19.47
2023-03-05T21:41:15.225Z,20.83
2023-03-05T21:43:43.310Z,21.33
2023-03-05T21:46:11.587Z,20.43
2023-03-05T21:48:40.889Z,21.33
2023-03-05T21:52:09.254Z,21.00
2023-03-05T21:54:37.553Z,20.00
2023-03-05T21:57:06.632Z,20.67
2023-03-05T21:59:34.732Z,20.93
2023-03-05T22:02:03.030Z,18.67
2023-03-05T22:04:32.387Z,19.40
2023-03-05T22:07:00.357Z,19.33
2023-03-05T22:09:28.364Z,18.67
2023-03-05T22:11:56.433Z,20.33
2023-03-05T22:14:24.782Z,20.53
2023-03-05T22:16:53.642Z,19.83
2023-03-05T22:19:22.119Z,19.27
2023-03-05T22:21:51.570Z,18.13
2023-03-05T22:24:19.673Z,20.20
2023-03-05T22:26:47.677Z,18.77
2023-03-05T22:29:17.404Z,19.83
2023-03-05T22:31:45.950Z,18.40
2023-03-05T22:34:13.892Z,20.33
2023-03-05T22:36:41.846Z,18.20
2023-03-05T22:39:11.182Z,18.57
2023-03-05T22:41:41.871Z,19.23
2023-03-05T22:44:09.854Z,19.57
2023-03-05T22:46:37.792Z,19.70
2023-03-05T22:49:05.762Z,19.43
2023-03-05T22:51:33.713Z,18.43
2023-03-05T22:54:01.668Z,17.97
2023-03-05T22:56:31.165Z,17.90
2023-03-05T22:58:59.138Z,19.00
2023-03-05T23:01:27.546Z,19.60
2023-03-05T23:04:40.530Z,19.53
2023-03-05T23:07:08.591Z,18.23
2023-03-05T23:09:36.625Z,19.40
2023-03-05T23:12:06.873Z,20.20
2023-03-05T23:14:34.850Z,18.77
2023-03-05T23:17:03.697Z,19.07
2023-03-05T23:19:31.802Z,19.37
2023-03-05T23:21:59.707Z,18.07
2023-03-05T23:24:27.637Z,19.23
2023-03-05T23:26:55.587Z,19.53
2023-03-05T23:30:06.070Z,21.17
2023-03-05T23:32:37.001Z,18.70
2023-03-05T23:35:05.644Z,19.83
2023-03-05T23:37:33.940Z,19.60
2023-03-05T23:40:01.858Z,19.60
2023-03-05T23:42:29.837Z,20.27
2023-03-05T23:44:59.165Z,20.67
2023-03-05T23:47:27.174Z,21.57
2023-03-05T23:49:55.197Z,19.30
2023-03-05T23:52:23.202Z,20.10
2023-03-05T23:54:51.145Z,21.07
2023-03-05T23:57:19.129Z,19.83
2023-03-05T23:59:47.074Z,20.17
